createdAt,value
2023-06-11T00:00:17.803Z,19.34
2023-06-11T00:03:08.104Z,19.27
2023-06-11T00:05:37.360Z,19.25
2023-06-11T00:08:07.029Z,19.28
2023-06-11T00:10:36.452Z,19.24
2023-06-11T00:13:05.457Z,19.21
2023-06-11T00:15:34.783Z,19.20
2023-06-11T00:18:03.617Z,19.12
2023-06-11T00:20:34.291Z,19.10
2023-06-11T00:23:03.232Z,19.04
2023-06-11T00:25:33.604Z,19.02
2023-06-11T00:28:02.566Z,18.94
2023-06-11T00:30:32.317Z,18.92
2023-06-11T00:33:01.526Z,18.87
2023-06-11T00:35:31.290Z,18.83
2023-06-11T00:38:01.746Z,18.73
2023-06-11T00:40:30.997Z,18.63
2023-06-11T00:42:59.958Z,18.61
2023-06-11T00:45:29.619Z,18.59
2023-06-11T00:47:58.751Z,18.53
2023-06-11T00:50:29.910Z,18.49
2023-06-11T00:53:00.380Z,18.45
2023-06-11T00:55:29.706Z,18.39
2023-06-11T00:57:58.620Z,18.37
2023-06-11T01:00:29.096Z,18.34
2023-06-11T01:03:09.039Z,18.33
2023-06-11T01:05:44.584Z,18.28
2023-06-11T01:08:18.154Z,18.24
2023-06-11T01:10:50.662Z,18.20
2023-06-11T01:13:20.403Z,18.18
2023-06-11T01:15:50.957Z,18.06
2023-06-11T01:18:25.111Z,18.04
2023-06-11T01:21:04.540Z,18.04
2023-06-11T01:23:44.906Z,17.99
2023-06-11T01:26:31.006Z,17.98
2023-06-11T01:29:05.377Z,17.97
2023-06-11T01:31:39.750Z,17.90
2023-06-11T01:34:10.053Z,17.85
2023-06-11T01:36:40.716Z,17.80
2023-06-11T01:39:10.549Z,17.80
2023-06-11T01:42:02.808Z,17.73
2023-06-11T01:44:34.376Z,17.74
2023-06-11T01:47:03.516Z,17.71
2023-06-11T01:49:32.805Z,17.69
2023-06-11T01:52:01.984Z,17.58
2023-06-11T01:54:31.091Z,17.55
2023-06-11T01:57:00.278Z,17.54
2023-06-11T01:59:29.237Z,17.53
2023-06-11T02:02:00.345Z,17.54
2023-06-11T02:04:29.547Z,17.53
2023-06-11T02:06:59.211Z,17.46
2023-06-11T02:09:28.132Z,17.37
2023-06-11T02:11:57.365Z,17.27
2023-06-11T02:14:26.568Z,17.31
2023-06-11T02:16:55.990Z,17.32
2023-06-11T02:19:26.346Z,17.30
2023-06-11T02:21:55.623Z,17.30
2023-06-11T02:24:24.758Z,17.23
2023-06-11T02:26:53.957Z,17.23
2023-06-11T02:29:23.066Z,17.16
2023-06-11T02:31:52.132Z,17.16
2023-06-11T02:34:20.962Z,17.13
2023-06-11T02:36:51.943Z,17.12
2023-06-11T02:39:21.008Z,17.04
2023-06-11T02:41:50.174Z,17.01
2023-06-11T02:44:19.063Z,16.99
2023-06-11T02:46:48.320Z,16.99
2023-06-11T02:49:17.305Z,16.96
2023-06-11T02:51:46.417Z,16.98
2023-06-11T02:54:16.649Z,16.94
2023-06-11T02:56:45.951Z,16.93
2023-06-11T02:59:15.168Z,16.96
2023-06-11T03:01:44.468Z,16.95
2023-06-11T03:04:13.709Z,16.98
2023-06-11T03:06:42.981Z,16.91
2023-06-11T03:09:11.930Z,16.94
2023-06-11T03:11:42.573Z,16.94
2023-06-11T03:14:11.363Z,17.01
2023-06-11T03:16:40.555Z,17.05
2023-06-11T03:19:09.756Z,16.99
2023-06-11T03:21:39.182Z,16.97
2023-06-11T03:24:09.334Z,16.97
2023-06-11T03:26:38.634Z,17.04
2023-06-11T03:29:09.143Z,17.00
2023-06-11T03:31:47.149Z,17.01
2023-06-11T03:34:16.538Z,17.10
2023-06-11T03:36:46.408Z,17.06
2023-06-11T03:39:18.980Z,17.04
2023-06-11T03:41:51.545Z,17.05
2023-06-11T03:44:23.788Z,17.10
2023-06-11T03:46:53.574Z,17.13
2023-06-11T03:49:22.563Z,17.12
2023-06-11T03:51:51.830Z,17.11
2023-06-11T03:54:20.875Z,17.06
2023-06-11T03:56:51.561Z,17.08
2023-06-11T03:59:20.718Z,17.07
2023-06-11T04:01:51.435Z,17.00
2023-06-11T04:04:20.462Z,16.92
2023-06-11T04:06:50.420Z,16.95
2023-06-11T04:09:19.959Z,17.02
2023-06-11T04:11:49.190Z,16.98
2023-06-11T04:14:18.324Z,16.94
2023-06-11T04:16:47.634Z,16.98
2023-06-11T04:19:19.524Z,16.95
2023-06-11T04:21:49.896Z,16.99
2023-06-11T04:24:18.953Z,17.08
2023-06-11T04:26:49.339Z,17.10
2023-06-11T04:29:19.788Z,17.10
2023-06-11T04:31:52.328Z,17.14
2023-06-11T04:34:30.352Z,17.13
2023-06-11T04:37:02.249Z,17.24
2023-06-11T04:39:32.715Z,17.26
2023-06-11T04:42:04.349Z,17.31
2023-06-11T04:44:33.309Z,17.36
2023-06-11T04:47:05.787Z,17.43
2023-06-11T04:49:38.914Z,17.36
2023-06-11T04:52:09.704Z,17.43
2023-06-11T04:54:42.714Z,17.47
2023-06-11T04:57:12.151Z,17.52
2023-06-11T04:59:41.057Z,17.56
2023-06-11T05:02:10.745Z,17.60
2023-06-11T05:04:41.302Z,17.72
2023-06-11T05:07:12.024Z,17.74
2023-06-11T05:09:44.460Z,17.86
2023-06-11T05:12:15.793Z,17.98
2023-06-11T05:14:46.484Z,18.05
2023-06-11T05:17:17.083Z,18.12
2023-06-11T05:19:49.916Z,18.22
2023-06-11T05:22:19.603Z,18.24
2023-06-11T05:24:48.997Z,18.31
2023-06-11T05:27:18.559Z,18.43
2023-06-11T05:29:47.963Z,18.55
2023-06-11T05:32:19.202Z,18.69
2023-06-11T05:34:51.223Z,18.96
2023-06-11T05:37:23.132Z,19.30
2023-06-11T05:39:52.072Z,19.68
2023-06-11T05:42:22.314Z,20.05
2023-06-11T05:44:51.471Z,20.26
2023-06-11T05:47:20.920Z,20.44
2023-06-11T05:49:53.399Z,20.66
2023-06-11T05:52:22.643Z,20.78
2023-06-11T05:54:51.626Z,20.90
2023-06-11T05:57:23.185Z,21.08
2023-06-11T05:59:54.234Z,21.26
2023-06-11T06:02:24.697Z,21.38
2023-06-11T06:04:56.529Z,21.47
2023-06-11T06:07:25.956Z,21.72
2023-06-11T06:09:56.620Z,21.82
2023-06-11T06:12:25.815Z,21.94
2023-06-11T06:14:54.718Z,21.85
2023-06-11T06:17:24.020Z,22.00
2023-06-11T06:19:53.259Z,22.14
2023-06-11T06:22:23.876Z,22.29
2023-06-11T06:24:52.846Z,22.38
2023-06-11T06:27:22.444Z,22.49
2023-06-11T06:29:52.095Z,22.56
2023-06-11T06:32:21.453Z,22.63
2023-06-11T06:34:50.891Z,22.78
2023-06-11T06:37:20.180Z,22.89
2023-06-11T06:39:52.349Z,22.97
2023-06-11T06:42:21.735Z,23.11
2023-06-11T06:44:55.442Z,23.17
2023-06-11T06:47:24.914Z,23.22
2023-06-11T06:49:54.058Z,23.28
2023-06-11T06:52:23.108Z,23.18
2023-06-11T06:54:53.439Z,23.17
2023-06-11T06:57:22.633Z,23.33
2023-06-11T06:59:51.539Z,23.41
2023-06-11T07:02:21.499Z,23.58
2023-06-11T07:04:52.672Z,23.61
2023-06-11T07:07:21.994Z,23.69
2023-06-11T07:09:52.762Z,23.86
2023-06-11T07:12:22.588Z,23.95
2023-06-11T07:14:52.389Z,24.04
2023-06-11T07:17:23.036Z,23.84
2023-06-11T07:19:52.499Z,23.73
2023-06-11T07:22:22.008Z,23.72
2023-06-11T07:24:53.430Z,23.74
2023-06-11T07:27:22.583Z,23.70
2023-06-11T07:29:53.439Z,23.82
2023-06-11T07:32:22.857Z,24.01
2023-06-11T07:34:51.902Z,24.06
2023-06-11T07:37:20.994Z,23.95
2023-06-11T07:39:50.022Z,24.05
2023-06-11T07:42:20.870Z,24.24
2023-06-11T07:44:49.831Z,24.13
2023-06-11T07:47:19.053Z,23.88
2023-06-11T07:49:47.984Z,23.81
2023-06-11T07:52:17.597Z,23.52
2023-06-11T07:54:47.172Z,23.43
2023-06-11T07:57:17.030Z,23.48
2023-06-11T07:59:47.378Z,23.55
2023-06-11T08:02:16.837Z,23.52
2023-06-11T08:04:46.190Z,23.65
2023-06-11T08:07:15.364Z,23.55
2023-06-11T08:09:44.556Z,23.57
2023-06-11T08:12:14.621Z,23.76
2023-06-11T08:14:43.538Z,23.99
2023-06-11T08:17:14.392Z,23.95
2023-06-11T08:19:43.222Z,23.98
2023-06-11T08:22:12.409Z,23.87
2023-06-11T08:24:41.847Z,23.71
2023-06-11T08:27:11.124Z,23.79
2023-06-11T08:29:40.230Z,23.92
2023-06-11T08:32:10.056Z,24.00
2023-06-11T08:34:40.364Z,24.07
2023-06-11T08:37:09.566Z,24.11
2023-06-11T08:39:38.544Z,24.16
2023-06-11T08:42:09.039Z,24.02
2023-06-11T08:44:38.257Z,23.92
2023-06-11T08:47:11.234Z,23.93
2023-06-11T08:49:43.946Z,23.86
2023-06-11T08:52:15.845Z,23.90
2023-06-11T08:54:45.035Z,24.09
2023-06-11T08:57:14.374Z,24.24
2023-06-11T08:59:43.300Z,24.46
2023-06-11T09:02:12.618Z,24.45
2023-06-11T09:04:45.063Z,24.49
2023-06-11T09:07:25.759Z,24.38
2023-06-11T09:10:05.842Z,24.34
2023-06-11T09:12:35.625Z,24.30
2023-06-11T09:15:08.258Z,24.40
2023-06-11T09:17:38.565Z,24.58
2023-06-11T09:20:12.838Z,24.72
2023-06-11T09:22:45.207Z,24.88
2023-06-11T09:25:18.272Z,24.88
2023-06-11T09:27:49.859Z,24.98
2023-06-11T09:30:21.233Z,25.02
2023-06-11T09:32:51.560Z,25.11
2023-06-11T09:35:23.282Z,25.00
2023-06-11T09:37:54.549Z,24.92
2023-06-11T09:40:25.366Z,24.88
2023-06-11T09:42:54.623Z,25.05
2023-06-11T09:45:24.897Z,25.15
2023-06-11T09:47:55.390Z,25.15
2023-06-11T09:50:26.943Z,25.22
2023-06-11T09:52:59.071Z,25.00
2023-06-11T09:55:29.176Z,25.07
2023-06-11T09:57:59.087Z,25.18
2023-06-11T10:00:27.997Z,25.46
2023-06-11T10:02:57.578Z,25.74
2023-06-11T10:05:29.638Z,26.01
2023-06-11T10:08:07.062Z,26.07
2023-06-11T10:10:41.537Z,25.82
2023-06-11T10:13:10.886Z,25.65
2023-06-11T10:15:40.615Z,25.65
2023-06-11T10:18:16.372Z,25.69
2023-06-11T10:21:01.180Z,25.63
2023-06-11T10:23:38.758Z,25.76
2023-06-11T10:26:09.253Z,25.79
2023-06-11T10:28:42.998Z,25.99
2023-06-11T10:31:12.001Z,26.40
2023-06-11T10:33:48.178Z,26.68
2023-06-11T10:36:29.163Z,26.93
2023-06-11T10:39:07.481Z,27.12
2023-06-11T10:41:40.444Z,27.25
2023-06-11T10:44:11.905Z,27.34
2023-06-11T10:46:50.305Z,27.42
2023-06-11T10:49:21.409Z,27.50
2023-06-11T10:51:53.801Z,27.51
2023-06-11T10:54:27.280Z,27.69
2023-06-11T10:56:57.100Z,27.76
2023-06-11T10:59:26.291Z,28.07
2023-06-11T11:01:56.089Z,28.44
2023-06-11T11:04:26.205Z,28.63
2023-06-11T11:07:09.648Z,28.78
2023-06-11T11:09:39.383Z,28.24
2023-06-11T11:12:09.616Z,27.65
2023-06-11T11:14:38.907Z,27.85
2023-06-11T11:17:08.498Z,28.12
2023-06-11T11:19:38.085Z,28.15
2023-06-11T11:22:08.578Z,28.29
2023-06-11T11:24:40.796Z,28.47
2023-06-11T11:27:10.410Z,28.35
2023-06-11T11:29:39.702Z,28.11
2023-06-11T11:32:09.788Z,27.73
2023-06-11T11:34:41.504Z,27.48
2023-06-11T11:37:12.358Z,27.43
2023-06-11T11:39:41.627Z,27.17
2023-06-11T11:42:11.778Z,26.87
2023-06-11T11:44:42.571Z,26.41
2023-06-11T11:47:11.823Z,26.07
2023-06-11T11:49:41.289Z,26.01
2023-06-11T11:52:14.042Z,26.16
2023-06-11T11:54:45.558Z,25.98
2023-06-11T11:57:14.755Z,25.80
2023-06-11T11:59:44.364Z,25.68
2023-06-11T12:02:13.211Z,25.68
2023-06-11T12:04:51.033Z,25.81
2023-06-11T12:07:22.956Z,25.64
2023-06-11T12:09:52.131Z,25.52
2023-06-11T12:12:21.051Z,25.72
2023-06-11T12:14:50.206Z,25.64
2023-06-11T12:17:19.339Z,25.65
2023-06-11T12:19:48.637Z,25.58
2023-06-11T12:22:17.632Z,25.35
2023-06-11T12:24:47.925Z,25.11
2023-06-11T12:27:17.168Z,25.11
2023-06-11T12:29:46.994Z,25.19
2023-06-11T12:32:16.466Z,25.37
2023-06-11T12:34:45.535Z,25.53
2023-06-11T12:37:15.228Z,25.45
2023-06-11T12:39:45.264Z,25.47
2023-06-11T12:42:16.256Z,25.52
2023-06-11T12:44:46.769Z,25.59
2023-06-11T12:47:16.793Z,25.65
2023-06-11T12:49:46.777Z,25.72
2023-06-11T12:52:16.911Z,25.76
2023-06-11T12:54:46.068Z,25.73
2023-06-11T12:57:17.357Z,25.74
2023-06-11T12:59:46.673Z,25.69
2023-06-11T13:02:19.399Z,25.76
2023-06-11T13:04:48.898Z,25.76
2023-06-11T13:07:18.455Z,25.64
2023-06-11T13:09:48.051Z,25.63
2023-06-11T13:12:19.296Z,25.58
2023-06-11T13:14:48.725Z,25.50
2023-06-11T13:17:17.820Z,25.51
2023-06-11T13:19:46.862Z,25.60
2023-06-11T13:22:17.469Z,25.55
2023-06-11T13:24:46.718Z,25.33
2023-06-11T13:27:16.028Z,25.23
2023-06-11T13:29:46.678Z,25.07
2023-06-11T13:32:17.042Z,25.06
2023-06-11T13:34:46.159Z,25.20
2023-06-11T13:37:15.759Z,25.24
2023-06-11T13:39:44.816Z,25.33
2023-06-11T13:42:14.278Z,25.30
2023-06-11T13:44:43.277Z,25.38
2023-06-11T13:47:14.279Z,25.55
2023-06-11T13:49:43.315Z,25.60
2023-06-11T13:52:12.515Z,25.60
2023-06-11T13:54:43.781Z,25.65
2023-06-11T13:57:12.920Z,25.64
2023-06-11T13:59:41.976Z,25.78
2023-06-11T14:02:11.295Z,25.76
2023-06-11T14:04:41.607Z,25.62
2023-06-11T14:07:11.162Z,25.46
2023-06-11T14:09:40.841Z,25.32
2023-06-11T14:12:10.848Z,25.22
2023-06-11T14:14:39.692Z,25.16
2023-06-11T14:17:09.200Z,25.17
2023-06-11T14:19:38.110Z,25.35
2023-06-11T14:22:08.985Z,25.50
2023-06-11T14:24:37.946Z,25.38
2023-06-11T14:27:08.849Z,25.18
2023-06-11T14:29:37.620Z,25.10
2023-06-11T14:32:08.446Z,25.20
2023-06-11T14:34:37.511Z,25.25
2023-06-11T14:37:08.716Z,25.38
2023-06-11T14:39:37.688Z,25.49
2023-06-11T14:42:08.303Z,25.35
2023-06-11T14:44:37.322Z,25.43
2023-06-11T14:47:07.473Z,25.51
2023-06-11T14:49:36.748Z,25.55
2023-06-11T14:52:10.636Z,25.63
2023-06-11T14:54:40.737Z,25.53
2023-06-11T14:57:14.366Z,25.46
2023-06-11T14:59:45.013Z,25.47
2023-06-11T15:02:16.414Z,25.55
2023-06-11T15:04:46.537Z,25.69
2023-06-11T15:07:33.193Z,25.84
2023-06-11T15:10:06.236Z,25.88
2023-06-11T15:12:35.724Z,25.80
2023-06-11T15:15:04.863Z,25.62
2023-06-11T15:17:37.448Z,25.28
2023-06-11T15:20:08.244Z,25.09
2023-06-11T15:22:40.654Z,24.85
2023-06-11T15:25:11.362Z,24.81
2023-06-11T15:27:41.121Z,24.89
2023-06-11T15:30:11.453Z,24.95
2023-06-11T15:32:41.085Z,24.96
2023-06-11T15:35:12.194Z,25.10
2023-06-11T15:37:42.820Z,25.23
2023-06-11T15:40:13.379Z,25.28
2023-06-11T15:42:43.527Z,25.38
2023-06-11T15:45:14.198Z,25.22
2023-06-11T15:47:44.593Z,24.97
2023-06-11T15:50:14.310Z,24.73
2023-06-11T15:52:45.594Z,24.61
2023-06-11T15:55:14.906Z,24.53
2023-06-11T15:57:45.255Z,24.47
2023-06-11T16:00:16.039Z,24.36
2023-06-11T16:02:45.511Z,24.21
2023-06-11T16:05:14.876Z,24.21
2023-06-11T16:07:45.649Z,24.22
2023-06-11T16:10:15.053Z,24.12
2023-06-11T16:12:45.963Z,24.16
2023-06-11T16:15:15.259Z,24.12
2023-06-11T16:17:46.288Z,24.15
2023-06-11T16:20:18.038Z,24.35
2023-06-11T16:22:48.923Z,24.44
2023-06-11T16:25:20.650Z,24.49
2023-06-11T16:27:50.548Z,24.47
2023-06-11T16:30:19.386Z,24.42
2023-06-11T16:32:48.692Z,24.40
2023-06-11T16:35:18.596Z,24.43
2023-06-11T16:37:49.542Z,24.37
2023-06-11T16:40:18.482Z,24.46
2023-06-11T16:42:47.696Z,24.52
2023-06-11T16:45:17.060Z,24.58
2023-06-11T16:47:46.295Z,24.60
2023-06-11T16:50:15.704Z,24.70
2023-06-11T16:52:45.043Z,24.77
2023-06-11T16:55:15.352Z,24.72
2023-06-11T16:57:44.551Z,24.69
2023-06-11T17:00:15.994Z,24.75
2023-06-11T17:02:45.931Z,24.70
2023-06-11T17:05:15.321Z,24.45
2023-06-11T17:07:45.515Z,24.33
2023-06-11T17:10:15.927Z,24.18
2023-06-11T17:12:47.265Z,23.97
2023-06-11T17:15:17.532Z,23.92
2023-06-11T17:17:47.416Z,23.88
2023-06-11T17:20:18.113Z,23.77
2023-06-11T17:22:51.728Z,23.68
2023-06-11T17:25:24.632Z,23.63
2023-06-11T17:27:54.095Z,23.58
2023-06-11T17:30:23.497Z,23.56
2023-06-11T17:32:52.757Z,23.53
2023-06-11T17:35:21.981Z,23.49
2023-06-11T17:37:51.138Z,23.46
2023-06-11T17:40:21.716Z,23.37
2023-06-11T17:42:52.133Z,23.34
2023-06-11T17:45:21.060Z,23.29
2023-06-11T17:47:50.446Z,23.29
2023-06-11T17:50:19.295Z,23.26
2023-06-11T17:52:48.665Z,23.18
2023-06-11T17:55:17.769Z,23.09
2023-06-11T17:57:49.274Z,23.08
2023-06-11T18:00:19.415Z,23.03
2023-06-11T18:02:48.680Z,23.00
2023-06-11T18:05:17.916Z,23.01
2023-06-11T18:07:47.668Z,23.03
2023-06-11T18:10:17.287Z,22.96
2023-06-11T18:12:47.903Z,22.94
2023-06-11T18:17:49.045Z,22.86
2023-06-11T18:20:18.131Z,22.85
2023-06-11T18:22:47.467Z,22.73
2023-06-11T18:25:16.569Z,22.68
2023-06-11T18:27:47.345Z,22.59
2023-06-11T18:30:19.624Z,22.52
2023-06-11T18:32:49.355Z,22.36
2023-06-11T18:35:19.347Z,22.34
2023-06-11T18:37:48.840Z,22.29
2023-06-11T18:40:17.753Z,22.19
2023-06-11T18:42:48.685Z,22.16
2023-06-11T18:45:17.768Z,22.04
2023-06-11T18:47:47.022Z,21.99
2023-06-11T18:50:16.476Z,21.94
2023-06-11T18:52:45.758Z,21.92
2023-06-11T18:55:14.740Z,21.83
2023-06-11T18:57:43.839Z,21.80
2023-06-11T19:00:16.165Z,21.77
2023-06-11T19:02:45.597Z,21.76
2023-06-11T19:05:14.789Z,21.67
2023-06-11T19:07:44.054Z,21.59
2023-06-11T19:10:13.370Z,21.54
2023-06-11T19:12:43.821Z,21.48
2023-06-11T19:15:14.346Z,21.44
2023-06-11T19:17:43.771Z,21.40
2023-06-11T19:20:13.897Z,21.30
2023-06-11T19:22:43.271Z,21.24
2023-06-11T19:25:12.272Z,21.21
2023-06-11T19:27:41.716Z,21.15
2023-06-11T19:30:11.803Z,21.08
2023-06-11T19:32:42.657Z,21.07
2023-06-11T19:35:12.094Z,21.01
2023-06-11T19:37:41.444Z,20.92
2023-06-11T19:40:12.472Z,20.85
2023-06-11T19:42:42.364Z,20.83
2023-06-11T19:45:11.735Z,20.78
2023-06-11T19:47:42.451Z,20.64
2023-06-11T19:50:12.564Z,20.64
2023-06-11T19:52:42.372Z,20.61
2023-06-11T19:55:12.042Z,20.60
2023-06-11T19:57:41.447Z,20.56
2023-06-11T20:00:12.668Z,20.51
2023-06-11T20:02:43.634Z,20.47
2023-06-11T20:05:12.679Z,20.43
2023-06-11T20:07:41.895Z,20.36
2023-06-11T20:10:11.861Z,20.29
2023-06-11T20:12:41.277Z,20.25
2023-06-11T20:15:11.472Z,20.22
2023-06-11T20:17:41.976Z,20.10
2023-06-11T20:20:11.971Z,20.06
2023-06-11T20:22:41.660Z,20.02
2023-06-11T20:25:10.822Z,19.96
2023-06-11T20:27:40.103Z,19.91
2023-06-11T20:30:10.618Z,19.90
2023-06-11T20:32:40.672Z,19.80
2023-06-11T20:35:11.517Z,19.76
2023-06-11T20:37:41.139Z,19.69
2023-06-11T20:40:12.045Z,19.62
2023-06-11T20:42:41.866Z,19.51
2023-06-11T20:45:12.111Z,19.37
2023-06-11T20:47:41.512Z,19.27
2023-06-11T20:50:12.404Z,19.18
2023-06-11T20:52:41.960Z,19.10
2023-06-11T20:55:11.585Z,19.00
2023-06-11T20:57:59.323Z,18.91
2023-06-11T21:00:28.245Z,18.80
2023-06-11T21:03:00.027Z,18.67
2023-06-11T21:05:30.848Z,18.63
2023-06-11T21:08:00.285Z,18.58
2023-06-11T21:10:29.204Z,18.51
2023-06-11T21:12:58.391Z,18.44
2023-06-11T21:15:27.311Z,18.37
2023-06-11T21:17:57.639Z,18.28
2023-06-11T21:20:27.220Z,18.25
2023-06-11T21:22:57.802Z,18.18
2023-06-11T21:25:26.746Z,18.09
2023-06-11T21:27:55.936Z,18.08
2023-06-11T21:30:24.978Z,18.05
2023-06-11T21:32:54.236Z,18.02
2023-06-11T21:35:23.256Z,17.99
2023-06-11T21:37:52.429Z,17.93
2023-06-11T21:40:22.833Z,17.85
2023-06-11T21:42:52.000Z,17.83
2023-06-11T21:45:21.008Z,17.77
2023-06-11T21:47:50.409Z,17.71
2023-06-11T21:50:19.764Z,17.67
2023-06-11T21:52:48.929Z,17.58
2023-06-11T21:55:18.176Z,17.56
2023-06-11T21:57:48.900Z,17.54
2023-06-11T22:00:20.840Z,17.47
2023-06-11T22:02:50.027Z,17.42
2023-06-11T22:05:21.842Z,17.36
2023-06-11T22:07:52.520Z,17.34
2023-06-11T22:10:21.706Z,17.34
2023-06-11T22:12:52.354Z,17.32
2023-06-11T22:15:21.733Z,17.29
2023-06-11T22:17:53.912Z,17.25
2023-06-11T22:20:26.581Z,17.22
2023-06-11T22:22:56.268Z,17.20
2023-06-11T22:25:27.319Z,17.20
2023-06-11T22:27:58.120Z,17.17
2023-06-11T22:30:26.898Z,17.12
2023-06-11T22:32:56.131Z,17.10
2023-06-11T22:35:25.056Z,17.09
2023-06-11T22:37:54.253Z,17.06
2023-06-11T22:40:23.713Z,17.03
2023-06-11T22:42:52.815Z,16.98
2023-06-11T22:45:23.080Z,16.94
2023-06-11T22:47:54.426Z,16.89
2023-06-11T22:50:23.565Z,16.87
2023-06-11T22:52:54.737Z,16.80
2023-06-11T22:55:23.633Z,16.80
2023-06-11T22:57:52.907Z,16.78
2023-06-11T23:00:23.555Z,16.78
2023-06-11T23:02:52.804Z,16.76
2023-06-11T23:05:21.830Z,16.70
2023-06-11T23:07:51.443Z,16.63
2023-06-11T23:10:20.438Z,16.58
2023-06-11T23:12:50.323Z,16.56
2023-06-11T23:15:19.506Z,16.54
2023-06-11T23:17:54.885Z,16.47
2023-06-11T23:20:28.563Z,16.45
2023-06-11T23:22:58.457Z,16.41
2023-06-11T23:25:28.190Z,16.35
2023-06-11T23:27:57.408Z,16.33
2023-06-11T23:30:26.777Z,16.33
2023-06-11T23:33:01.121Z,16.34
2023-06-11T23:35:30.174Z,16.39
2023-06-11T23:37:59.289Z,16.39
2023-06-11T23:40:28.098Z,16.38
2023-06-11T23:42:57.314Z,16.35
2023-06-11T23:45:26.206Z,16.35
2023-06-11T23:47:56.793Z,16.31
2023-06-11T23:50:25.974Z,16.24
2023-06-11T23:52:55.064Z,16.23
2023-06-11T23:55:24.500Z,16.13
2023-06-11T23:58:20.733Z,16.15
